METAR Data
IDs: Format: Raw Decoded Include TAF

Data at: 2214 UTC 20 Nov 2018

RJNT 202200Z 16005KT 100V200 9999 FEW020 BKN/// 07/M00 Q1024
RJNT 202110Z 16004KT 120V200 CAVOK 07/00 Q1023 RMK A3023
RJNT 201200Z 23002KT 9999 FEW030 07/04 Q1023
RJNT 201100Z 19003KT 9999 FEW030 SCT060 08/04 Q1023
RJNT 201000Z 20003KT 9999 FEW030 BKN070 09/05 Q1023
RJNT 200900Z VRB02KT 9999 FEW030 SCT060 BKN080 11/04 Q1022
RJNT 200800Z 34003KT 9999 FEW030 SCT070 BKN090 11/03 Q1022
RJNT 200700Z 35007KT 9999 FEW030 SCT090 13/03 Q1021
RJNT 200600Z 34005KT 9999 FEW030 BKN090 14/00 Q1020
RJNT 200500Z 34005KT 300V020 9999 FEW030 SCT090 14/M02 Q1020
RJNT 200400Z 27004KT 210V340 9999 FEW030 SCT090 14/M01 Q1020
RJNT 200300Z 25004KT 190V320 9999 FEW030 14/01 Q1020
RJNT 200200Z 24004KT 210V290 9999 FEW030 12/03 Q1020
RJNT 200100Z 17003KT 120V280 9999 FEW030 11/04 Q1021
RJNT 200000Z 15003KT 100V240 9999 FEW030 08/05 Q1021
RJNT 192300Z 18003KT 150V220 9999 FEW020 BKN050 07/04 Q1021